sensor_id;sensor_type;location;lat;lon;timestamp;pressure;altitude;pressure_sealevel;temperature;humidity
61318;BME280;47201;40.428;-8.436;2023-05-16T00:00:35;100819.28;;;13.27;100.00
61318;BME280;47201;40.428;-8.436;2023-05-16T00:02:35;100818.47;;;13.21;100.00
61318;BME280;47201;40.428;-8.436;2023-05-16T00:04:57;100816.75;;;13.18;100.00
61318;BME280;47201;40.428;-8.436;2023-05-16T00:06:58;100815.91;;;13.14;100.00
61318;BME280;47201;40.428;-8.436;2023-05-16T00:08:58;100814.22;;;13.10;100.00
61318;BME280;47201;40.428;-8.436;2023-05-16T00:10:59;100800.25;;;13.08;100.00
61318;BME280;47201;40.428;-8.436;2023-05-16T00:13:00;100802.03;;;13.01;100.00
61318;BME280;47201;40.428;-8.436;2023-05-16T00:15:19;100803.81;;;12.99;100.00
61318;BME280;47201;40.428;-8.436;2023-05-16T00:17:20;100807.28;;;13.03;100.00
61318;BME280;47201;40.428;-8.436;2023-05-16T00:19:22;100801.09;;;13.09;100.00
61318;BME280;47201;40.428;-8.436;2023-05-16T00:21:41;100797.69;;;13.02;100.00
61318;BME280;47201;40.428;-8.436;2023-05-16T00:24:00;100798.56;;;12.99;100.00
61318;BME280;47201;40.428;-8.436;2023-05-16T00:26:19;100798.56;;;12.99;100.00
61318;BME280;47201;40.428;-8.436;2023-05-16T00:28:20;100797.69;;;13.00;100.00
61318;BME280;47201;40.428;-8.436;2023-05-16T00:30:20;100803.72;;;13.09;100.00
61318;BME280;47201;40.428;-8.436;2023-05-16T00:32:21;100799.31;;;13.12;100.00
61318;BME280;47201;40.428;-8.436;2023-05-16T00:34:40;100794.94;;;13.11;100.00
61318;BME280;47201;40.428;-8.436;2023-05-16T00:36:41;100800.22;;;13.10;100.00
61318;BME280;47201;40.428;-8.436;2023-05-16T00:38:42;100797.63;;;13.05;100.00
61318;BME280;47201;40.428;-8.436;2023-05-16T00:40:42;100798.56;;;12.99;100.00
61318;BME280;47201;40.428;-8.436;2023-05-16T00:42:43;100788.06;;;13.01;100.00
61318;BME280;47201;40.428;-8.436;2023-05-16T00:45:02;100796.81;;;13.01;100.00
61318;BME280;47201;40.428;-8.436;2023-05-16T00:47:03;100797.72;;;12.96;100.00
61318;BME280;47201;40.428;-8.436;2023-05-16T00:49:03;100789.94;;;12.88;100.00
61318;BME280;47201;40.428;-8.436;2023-05-16T00:51:04;100794.38;;;12.83;100.00
61318;BME280;47201;40.428;-8.436;2023-05-16T00:53:09;100795.28;;;12.80;100.00
61318;BME280;47201;40.428;-8.436;2023-05-16T00:55:10;100797.88;;;12.79;100.00
61318;BME280;47201;40.428;-8.436;2023-05-16T00:57:12;100789.19;;;12.75;100.00
61318;BME280;47201;40.428;-8.436;2023-05-16T00:59:12;100785.72;;;12.73;100.00
61318;BME280;47201;40.428;-8.436;2023-05-16T01:01:14;100786.63;;;12.66;100.00
61318;BME280;47201;40.428;-8.436;2023-05-16T01:03:14;100785.72;;;12.73;100.00
61318;BME280;47201;40.428;-8.436;2023-05-16T01:05:15;100787.41;;;12.77;100.00
61318;BME280;47201;40.428;-8.436;2023-05-16T01:07:18;100783.84;;;12.84;100.00
61318;BME280;47201;40.428;-8.436;2023-05-16T01:09:19;100777.66;;;12.95;100.00
61318;BME280;47201;40.428;-8.436;2023-05-16T01:11:21;100774.13;;;12.94;100.00
61318;BME280;47201;40.428;-8.436;2023-05-16T01:13:30;100769.78;;;12.92;100.00
61318;BME280;47201;40.428;-8.436;2023-05-16T01:15:55;100775.06;;;12.89;100.00
61318;BME280;47201;40.428;-8.436;2023-05-16T01:18:24;100776.88;;;12.83;100.00
61318;BME280;47201;40.428;-8.436;2023-05-16T01:20:52;100769.03;;;12.80;100.00
61318;BME280;47201;40.428;-8.436;2023-05-16T01:23:08;100765.59;;;12.77;100.00
61318;BME280;47201;40.428;-8.436;2023-05-16T01:27:21;100761.09;;;12.85;100.00
61318;BME280;47201;40.428;-8.436;2023-05-16T01:29:23;100751.50;;;12.82;100.00
61318;BME280;47201;40.428;-8.436;2023-05-16T01:31:23;100752.44;;;12.78;100.00
61318;BME280;47201;40.428;-8.436;2023-05-16T01:33:24;100756.75;;;12.82;100.00
61318;BME280;47201;40.428;-8.436;2023-05-16T01:35:25;100751.53;;;12.84;100.00
61318;BME280;47201;40.428;-8.436;2023-05-16T01:37:28;100753.31;;;12.80;100.00
61318;BME280;47201;40.428;-8.436;2023-05-16T01:39:56;100758.56;;;12.77;100.00
61318;BME280;47201;40.428;-8.436;2023-05-16T01:42:09;100759.50;;;12.70;100.00
61318;BME280;47201;40.428;-8.436;2023-05-16T01:44:16;100748.25;;;12.60;100.00
61318;BME280;47201;40.428;-8.436;2023-05-16T01:46:20;100744.78;;;12.53;100.00
61318;BME280;47201;40.428;-8.436;2023-05-16T01:48:26;100743.91;;;12.58;100.00
61318;BME280;47201;40.428;-8.436;2023-05-16T01:50:51;100741.22;;;12.62;100.00
61318;BME280;47201;40.428;-8.436;2023-05-16T01:52:58;100740.28;;;12.68;100.00
61318;BME280;47201;40.428;-8.436;2023-05-16T01:55:00;100727.19;;;12.69;100.00
61318;BME280;47201;40.428;-8.436;2023-05-16T01:57:03;100733.28;;;12.70;100.00
61318;BME280;47201;40.428;-8.436;2023-05-16T01:59:03;100733.28;;;12.70;100.00
61318;BME280;47201;40.428;-8.436;2023-05-16T02:01:23;100738.59;;;12.61;100.00
61318;BME280;47201;40.428;-8.436;2023-05-16T02:03:24;100735.19;;;12.52;100.00
61318;BME280;47201;40.428;-8.436;2023-05-16T02:05:25;100723.03;;;12.47;100.00
61318;BME280;47201;40.428;-8.436;2023-05-16T02:07:26;100722.19;;;12.42;100.00
61318;BME280;47201;40.428;-8.436;2023-05-16T02:09:26;100726.63;;;12.35;100.00
61318;BME280;47201;40.428;-8.436;2023-05-16T02:11:27;100719.63;;;12.35;100.00
61318;BME280;47201;40.428;-8.436;2023-05-16T02:13:28;100717.81;;;12.41;100.00
61318;BME280;47201;40.428;-8.436;2023-05-16T02:15:28;100716.06;;;12.41;100.00
61318;BME280;47201;40.428;-8.436;2023-05-16T02:17:29;100713.41;;;12.44;100.00
61318;BME280;47201;40.428;-8.436;2023-05-16T02:19:31;100714.34;;;12.40;100.00
61318;BME280;47201;40.428;-8.436;2023-05-16T02:21:34;100707.41;;;12.30;100.00
61318;BME280;47201;40.428;-8.436;2023-05-16T02:23:34;100712.66;;;12.30;100.00
61318;BME280;47201;40.428;-8.436;2023-05-16T02:25:35;100706.66;;;12.18;100.00
61318;BME280;47201;40.428;-8.436;2023-05-16T02:27:36;100706.75;;;12.08;100.00
61318;BME280;47201;40.428;-8.436;2023-05-16T02:29:36;100702.44;;;11.93;100.00
61318;BME280;47201;40.428;-8.436;2023-05-16T02:31:37;100705.09;;;11.86;100.00
61318;BME280;47201;40.428;-8.436;2023-05-16T02:33:37;100693.75;;;11.84;100.00
61318;BME280;47201;40.428;-8.436;2023-05-16T02:35:38;100688.59;;;11.73;100.00
61318;BME280;47201;40.428;-8.436;2023-05-16T02:37:40;100690.41;;;11.67;100.00
61318;BME280;47201;40.428;-8.436;2023-05-16T02:39:40;100681.69;;;11.65;100.00
61318;BME280;47201;40.428;-8.436;2023-05-16T02:41:41;100689.56;;;11.60;100.00
61318;BME280;47201;40.428;-8.436;2023-05-16T02:43:42;100680.84;;;11.56;100.00
61318;BME280;47201;40.428;-8.436;2023-05-16T02:45:43;100679.13;;;11.54;100.00
61318;BME280;47201;40.428;-8.436;2023-05-16T02:47:44;100675.66;;;11.53;100.00
61318;BME280;47201;40.428;-8.436;2023-05-16T02:49:48;100668.72;;;11.48;100.00
61318;BME280;47201;40.428;-8.436;2023-05-16T02:51:49;100668.72;;;11.48;100.00
61318;BME280;47201;40.428;-8.436;2023-05-16T02:53:49;100664.31;;;11.48;100.00
61318;BME280;47201;40.428;-8.436;2023-05-16T02:55:50;100663.50;;;11.46;100.00
61318;BME280;47201;40.428;-8.436;2023-05-16T02:57:51;100673.91;;;11.49;100.00
61318;BME280;47201;40.428;-8.436;2023-05-16T03:00:10;100653.84;;;11.48;100.00
61318;BME280;47201;40.428;-8.436;2023-05-16T03:02:11;100662.56;;;11.52;100.00
61318;BME280;47201;40.428;-8.436;2023-05-16T03:04:31;100652.94;;;11.58;100.00
61318;BME280;47201;40.428;-8.436;2023-05-16T03:06:31;100657.25;;;11.63;100.00
61318;BME280;47201;40.428;-8.436;2023-05-16T03:08:33;100653.69;;;11.73;100.00
61318;BME280;47201;40.428;-8.436;2023-05-16T03:10:52;100651.91;;;11.78;100.00
61318;BME280;47201;40.428;-8.436;2023-05-16T03:13:11;100645.78;;;11.79;100.00
61318;BME280;47201;40.428;-8.436;2023-05-16T03:15:11;100639.69;;;11.77;100.00
61318;BME280;47201;40.428;-8.436;2023-05-16T03:17:12;100642.31;;;11.80;100.00
61318;BME280;47201;40.428;-8.436;2023-05-16T03:19:12;100637.94;;;11.82;100.00
61318;BME280;47201;40.428;-8.436;2023-05-16T03:21:13;100638.75;;;11.90;100.00
61318;BME280;47201;40.428;-8.436;2023-05-16T03:23:14;100630.84;;;11.98;100.00
61318;BME280;47201;40.428;-8.436;2023-05-16T03:25:14;100642.97;;;12.07;100.00
61318;BME280;47201;40.428;-8.436;2023-05-16T03:27:15;100638.56;;;12.11;100.00
61318;BME280;47201;40.428;-8.436;2023-05-16T03:29:35;100622.84;;;12.11;100.00
61318;BME280;47201;40.428;-8.436;2023-05-16T03:31:36;100636.81;;;12.13;100.00
61318;BME280;47201;40.428;-8.436;2023-05-16T03:33:36;100635.91;;;12.18;100.00
61318;BME280;47201;40.428;-8.436;2023-05-16T03:35:37;100634.16;;;12.17;100.00
61318;BME280;47201;40.428;-8.436;2023-05-16T03:37:39;100638.53;;;12.18;100.00
61318;BME280;47201;40.428;-8.436;2023-05-16T03:39:39;100643.72;;;12.21;100.00
61318;BME280;47201;40.428;-8.436;2023-05-16T03:41:40;100644.66;;;12.16;100.00
61318;BME280;47201;40.428;-8.436;2023-05-16T03:43:59;100643.75;;;12.20;100.00
61318;BME280;47201;40.428;-8.436;2023-05-16T03:46:00;100647.34;;;12.10;100.00
61318;BME280;47201;40.428;-8.436;2023-05-16T03:48:00;100653.47;;;12.07;100.00
61318;BME280;47201;40.428;-8.436;2023-05-16T03:50:01;100647.38;;;12.03;100.00
61318;BME280;47201;40.428;-8.436;2023-05-16T03:52:03;100647.38;;;12.03;100.00
61318;BME280;47201;40.428;-8.436;2023-05-16T03:54:03;100646.53;;;12.01;100.00
61318;BME280;47201;40.428;-8.436;2023-05-16T03:56:04;100637.72;;;12.07;100.00
61318;BME280;47201;40.428;-8.436;2023-05-16T03:58:05;100640.31;;;12.12;100.00
61318;BME280;47201;40.428;-8.436;2023-05-16T04:00:07;100647.25;;;12.17;100.00
61318;BME280;47201;40.428;-8.436;2023-05-16T04:02:11;100645.44;;;12.26;100.00
61318;BME280;47201;40.428;-8.436;2023-05-16T04:04:12;100642.81;;;12.26;100.00
61318;BME280;47201;40.428;-8.436;2023-05-16T04:06:13;100648.91;;;12.29;100.00
61318;BME280;47201;40.428;-8.436;2023-05-16T04:08:13;100654.09;;;12.35;100.00
61318;BME280;47201;40.428;-8.436;2023-05-16T04:10:14;100644.47;;;12.36;100.00
61318;BME280;47201;40.428;-8.436;2023-05-16T04:12:15;100643.59;;;12.35;100.00
61318;BME280;47201;40.428;-8.436;2023-05-16T04:14:18;100648.84;;;12.35;100.00
61318;BME280;47201;40.428;-8.436;2023-05-16T04:16:19;100657.53;;;12.39;100.00
61318;BME280;47201;40.428;-8.436;2023-05-16T04:18:20;100660.16;;;12.39;100.00
61318;BME280;47201;40.428;-8.436;2023-05-16T04:20:43;100652.22;;;12.45;100.00
61318;BME280;47201;40.428;-8.436;2023-05-16T04:22:45;100649.56;;;12.50;100.00
61318;BME280;47201;40.428;-8.436;2023-05-16T04:24:46;100651.34;;;12.49;100.00
61318;BME280;47201;40.428;-8.436;2023-05-16T04:26:47;100655.66;;;12.52;100.00
61318;BME280;47201;40.428;-8.436;2023-05-16T04:28:47;100663.56;;;12.50;100.00
61318;BME280;47201;40.428;-8.436;2023-05-16T04:30:48;100653.03;;;12.53;100.00
61318;BME280;47201;40.428;-8.436;2023-05-16T04:32:49;100656.50;;;12.56;100.00
61318;BME280;47201;40.428;-8.436;2023-05-16T04:35:08;100654.69;;;12.61;100.00
61318;BME280;47201;40.428;-8.436;2023-05-16T04:37:09;100653.78;;;12.65;100.00
61318;BME280;47201;40.428;-8.436;2023-05-16T04:39:11;100650.25;;;12.67;100.00
61318;BME280;47201;40.428;-8.436;2023-05-16T04:41:31;100652.84;;;12.72;100.00
61318;BME280;47201;40.428;-8.436;2023-05-16T04:43:50;100651.06;;;12.73;100.00
61318;BME280;47201;40.428;-8.436;2023-05-16T04:45:51;100643.25;;;12.69;100.00
61318;BME280;47201;40.428;-8.436;2023-05-16T04:47:53;100644.09;;;12.73;100.00
61318;BME280;47201;40.428;-8.436;2023-05-16T04:49:53;100650.25;;;12.67;100.00
61318;BME280;47201;40.428;-8.436;2023-05-16T04:51:54;100651.16;;;12.65;100.00
61318;BME280;47201;40.428;-8.436;2023-05-16T04:53:54;100652.06;;;12.64;100.00
61318;BME280;47201;40.428;-8.436;2023-05-16T04:55:55;100645.88;;;12.68;100.00
61318;BME280;47201;40.428;-8.436;2023-05-16T04:58:14;100655.41;;;12.75;100.00
61318;BME280;47201;40.428;-8.436;2023-05-16T05:00:16;100647.59;;;12.70;100.00
61318;BME280;47201;40.428;-8.436;2023-05-16T05:02:19;100655.44;;;12.74;100.00
61318;BME280;47201;40.428;-8.436;2023-05-16T05:04:39;100643.19;;;12.73;100.00
61318;BME280;47201;40.428;-8.436;2023-05-16T05:06:39;100646.75;;;12.67;100.00
61318;BME280;47201;40.428;-8.436;2023-05-16T05:08:40;100654.72;;;12.59;100.00
61318;BME280;47201;40.428;-8.436;2023-05-16T05:10:40;100652.16;;;12.53;100.00
61318;BME280;47201;40.428;-8.436;2023-05-16T05:12:41;100657.47;;;12.48;100.00
61318;BME280;47201;40.428;-8.436;2023-05-16T05:14:41;100661.84;;;12.46;100.00
61318;BME280;47201;40.428;-8.436;2023-05-16T05:16:42;100646.19;;;12.40;100.00
61318;BME280;47201;40.428;-8.436;2023-05-16T05:18:43;100654.00;;;12.42;100.00
61318;BME280;47201;40.428;-8.436;2023-05-16T05:20:44;100654.09;;;12.34;100.00
61318;BME280;47201;40.428;-8.436;2023-05-16T05:22:44;100661.97;;;12.34;100.00
61318;BME280;47201;40.428;-8.436;2023-05-16T05:24:45;100660.22;;;12.33;100.00
61318;BME280;47201;40.428;-8.436;2023-05-16T05:26:49;100668.06;;;12.37;100.00
61318;BME280;47201;40.428;-8.436;2023-05-16T05:28:50;100672.47;;;12.31;100.00
61318;BME280;47201;40.428;-8.436;2023-05-16T05:31:09;100669.03;;;12.26;100.00
61318;BME280;47201;40.428;-8.436;2023-05-16T05:33:31;100677.00;;;12.13;100.00
61318;BME280;47201;40.428;-8.436;2023-05-16T05:35:32;100670.09;;;12.00;100.00
61318;BME280;47201;40.428;-8.436;2023-05-16T05:37:32;100674.50;;;11.93;100.00
61318;BME280;47201;40.428;-8.436;2023-05-16T05:39:33;100678.06;;;11.86;100.00
61318;BME280;47201;40.428;-8.436;2023-05-16T05:41:34;100673.75;;;11.79;100.00
61318;BME280;47201;40.428;-8.436;2023-05-16T05:43:53;100665.03;;;11.75;100.00
61318;BME280;47201;40.428;-8.436;2023-05-16T05:46:02;100666.81;;;11.68;100.00
61318;BME280;47201;40.428;-8.436;2023-05-16T05:48:03;100668.56;;;11.69;100.00
61318;BME280;47201;40.428;-8.436;2023-05-16T05:50:03;100664.16;;;11.76;100.00
61318;BME280;47201;40.428;-8.436;2023-05-16T05:52:05;100670.22;;;11.83;100.00
61318;BME280;47201;40.428;-8.436;2023-05-16T05:54:06;100668.44;;;11.86;100.00
61318;BME280;47201;40.428;-8.436;2023-05-16T05:56:07;100666.66;;;11.98;100.00
61318;BME280;47201;40.428;-8.436;2023-05-16T05:58:07;100664.84;;;12.03;100.00
61318;BME280;47201;40.428;-8.436;2023-05-16T06:00:08;100673.53;;;12.11;100.00
61318;BME280;47201;40.428;-8.436;2023-05-16T06:02:09;100675.22;;;12.18;100.00
61318;BME280;47201;40.428;-8.436;2023-05-16T06:04:10;100674.19;;;12.35;100.00
61318;BME280;47201;40.428;-8.436;2023-05-16T06:06:29;100672.31;;;12.49;100.00
61318;BME280;47201;40.428;-8.436;2023-05-16T06:08:30;100685.41;;;12.51;100.00
61318;BME280;47201;40.428;-8.436;2023-05-16T06:10:30;100688.78;;;12.61;100.00
61318;BME280;47201;40.428;-8.436;2023-05-16T06:12:31;100694.72;;;12.78;100.00
61318;BME280;47201;40.428;-8.436;2023-05-16T06:14:31;100705.00;;;12.97;100.00
61318;BME280;47201;40.428;-8.436;2023-05-16T06:16:50;100711.91;;;13.06;100.00
61318;BME280;47201;40.428;-8.436;2023-05-16T06:18:51;100709.25;;;13.10;100.00
61318;BME280;47201;40.428;-8.436;2023-05-16T06:20:52;100711.81;;;13.13;100.00
61318;BME280;47201;40.428;-8.436;2023-05-16T06:22:53;100714.38;;;13.18;100.00
61318;BME280;47201;40.428;-8.436;2023-05-16T06:24:53;100710.81;;;13.25;100.00
61318;BME280;47201;40.428;-8.436;2023-05-16T06:26:54;100722.13;;;13.29;100.00
61318;BME280;47201;40.428;-8.436;2023-05-16T06:28:54;100711.53;;;13.35;100.00
61318;BME280;47201;40.428;-8.436;2023-05-16T06:30:55;100717.63;;;13.42;100.00
61318;BME280;47201;40.428;-8.436;2023-05-16T06:32:56;100719.31;;;13.46;100.00
61318;BME280;47201;40.428;-8.436;2023-05-16T06:34:56;100723.66;;;13.48;100.00
61318;BME280;47201;40.428;-8.436;2023-05-16T06:36:56;100726.19;;;13.56;100.00
61318;BME280;47201;40.428;-8.436;2023-05-16T06:38:57;100723.50;;;13.61;100.00
61318;BME280;47201;40.428;-8.436;2023-05-16T06:40:58;100723.44;;;13.66;100.00
61318;BME280;47201;40.428;-8.436;2023-05-16T06:42:59;100725.06;;;13.74;100.00
61318;BME280;47201;40.428;-8.436;2023-05-16T06:44:59;100726.56;;;13.89;100.00
61318;BME280;47201;40.428;-8.436;2023-05-16T06:47:00;100733.31;;;14.07;100.00
61318;BME280;47201;40.428;-8.436;2023-05-16T06:49:01;100730.50;;;14.20;100.00
61318;BME280;47201;40.428;-8.436;2023-05-16T06:51:02;100736.50;;;14.28;100.00
61318;BME280;47201;40.428;-8.436;2023-05-16T06:53:03;100731.16;;;14.34;100.00
61318;BME280;47201;40.428;-8.436;2023-05-16T06:55:06;100737.19;;;14.39;100.00
61318;BME280;47201;40.428;-8.436;2023-05-16T06:57:07;100736.06;;;14.54;100.00
61318;BME280;47201;40.428;-8.436;2023-05-16T06:59:27;100739.88;;;14.88;100.00
61318;BME280;47201;40.428;-8.436;2023-05-16T07:01:27;100735.72;;;15.21;100.00
61318;BME280;47201;40.428;-8.436;2023-05-16T07:03:28;100728.66;;;15.64;100.00
61318;BME280;47201;40.428;-8.436;2023-05-16T07:05:29;100734.09;;;15.97;100.00
61318;BME280;47201;40.428;-8.436;2023-05-16T07:07:29;100733.66;;;16.50;100.00
61318;BME280;47201;40.428;-8.436;2023-05-16T07:09:30;100744.03;;;16.91;100.00
61318;BME280;47201;40.428;-8.436;2023-05-16T07:11:30;100741.28;;;17.57;94.08
61318;BME280;47201;40.428;-8.436;2023-05-16T07:13:31;100747.94;;;18.54;86.72
61318;BME280;47201;40.428;-8.436;2023-05-16T07:15:32;100753.75;;;19.40;81.55
61318;BME280;47201;40.428;-8.436;2023-05-16T07:17:32;100758.44;;;20.46;76.98
61318;BME280;47201;40.428;-8.436;2023-05-16T07:19:51;100764.28;;;21.94;67.95
61318;BME280;47201;40.428;-8.436;2023-05-16T07:21:52;100765.00;;;23.38;63.85
61318;BME280;47201;40.428;-8.436;2023-05-16T07:23:53;100774.88;;;24.02;59.71
61318;BME280;47201;40.428;-8.436;2023-05-16T07:25:53;100781.97;;;25.09;56.14
61318;BME280;47201;40.428;-8.436;2023-05-16T07:27:54;100776.78;;;24.91;53.94
61318;BME280;47201;40.428;-8.436;2023-05-16T07:29:55;100786.22;;;25.98;52.53
61318;BME280;47201;40.428;-8.436;2023-05-16T07:31:55;100782.75;;;27.17;50.72
61318;BME280;47201;40.428;-8.436;2023-05-16T07:33:56;100783.28;;;26.83;51.32
61318;BME280;47201;40.428;-8.436;2023-05-16T07:35:56;100788.09;;;27.55;51.09
61318;BME280;47201;40.428;-8.436;2023-05-16T07:37:57;100788.25;;;27.78;51.19
61318;BME280;47201;40.428;-8.436;2023-05-16T07:40:19;100784.50;;;27.68;51.98
61318;BME280;47201;40.428;-8.436;2023-05-16T07:42:24;100781.34;;;29.18;50.28
61318;BME280;47201;40.428;-8.436;2023-05-16T07:44:25;100788.03;;;29.01;51.72
61318;BME280;47201;40.428;-8.436;2023-05-16T07:46:26;100771.69;;;27.84;56.48
61318;BME280;47201;40.428;-8.436;2023-05-16T07:48:26;100786.63;;;26.87;62.20
61318;BME280;47201;40.428;-8.436;2023-05-16T07:50:27;100786.19;;;25.71;67.76
61318;BME280;47201;40.428;-8.436;2023-05-16T07:52:28;100786.25;;;24.97;68.67
61318;BME280;47201;40.428;-8.436;2023-05-16T07:54:29;100782.28;;;24.43;71.25
61318;BME280;47201;40.428;-8.436;2023-05-16T07:56:48;100788.59;;;24.26;69.78
61318;BME280;47201;40.428;-8.436;2023-05-16T07:58:49;100782.31;;;24.58;67.76
61318;BME280;47201;40.428;-8.436;2023-05-16T08:00:49;100785.66;;;24.77;67.26
61318;BME280;47201;40.428;-8.436;2023-05-16T08:02:50;100796.31;;;25.80;66.20
61318;BME280;47201;40.428;-8.436;2023-05-16T08:05:09;100797.06;;;26.24;66.22
61318;BME280;47201;40.428;-8.436;2023-05-16T08:07:09;100794.13;;;26.95;65.44
61318;BME280;47201;40.428;-8.436;2023-05-16T08:09:10;100798.31;;;26.99;65.07
61318;BME280;47201;40.428;-8.436;2023-05-16T08:11:10;100799.19;;;27.75;64.70
61318;BME280;47201;40.428;-8.436;2023-05-16T08:13:29;100791.69;;;28.89;63.89
61318;BME280;47201;40.428;-8.436;2023-05-16T08:15:30;100789.69;;;29.38;63.52
61318;BME280;47201;40.428;-8.436;2023-05-16T08:17:31;100791.16;;;28.72;65.75
61318;BME280;47201;40.428;-8.436;2023-05-16T08:19:37;100804.84;;;27.07;69.76
61318;BME280;47201;40.428;-8.436;2023-05-16T08:21:37;100809.63;;;25.38;73.66
61318;BME280;47201;40.428;-8.436;2023-05-16T08:23:38;100796.53;;;24.28;76.77
61318;BME280;47201;40.428;-8.436;2023-05-16T08:25:38;100785.28;;;23.25;78.53
61318;BME280;47201;40.428;-8.436;2023-05-16T08:27:39;100789.72;;;23.24;80.05
61318;BME280;47201;40.428;-8.436;2023-05-16T08:29:40;100789.13;;;23.19;80.45
61318;BME280;47201;40.428;-8.436;2023-05-16T08:31:40;100784.66;;;22.85;80.94
61318;BME280;47201;40.428;-8.436;2023-05-16T08:33:41;100795.34;;;22.67;81.11
61318;BME280;47201;40.428;-8.436;2023-05-16T08:35:45;100793.63;;;22.29;82.08
61318;BME280;47201;40.428;-8.436;2023-05-16T08:37:45;100794.72;;;22.25;82.15
61318;BME280;47201;40.428;-8.436;2023-05-16T08:39:47;100801.44;;;22.15;83.09
61318;BME280;47201;40.428;-8.436;2023-05-16T08:41:48;100806.03;;;22.11;82.81
61318;BME280;47201;40.428;-8.436;2023-05-16T08:43:49;100798.72;;;21.78;83.40
61318;BME280;47201;40.428;-8.436;2023-05-16T08:46:05;100794.88;;;21.85;83.44
61318;BME280;47201;40.428;-8.436;2023-05-16T08:48:06;100772.94;;;22.89;81.89
61318;BME280;47201;40.428;-8.436;2023-05-16T08:50:08;100782.81;;;23.38;80.57
61318;BME280;47201;40.428;-8.436;2023-05-16T08:52:09;100782.38;;;22.94;81.03
61318;BME280;47201;40.428;-8.436;2023-05-16T08:54:10;100783.91;;;23.16;81.44
61318;BME280;47201;40.428;-8.436;2023-05-16T08:56:12;100786.97;;;22.75;81.73
61318;BME280;47201;40.428;-8.436;2023-05-16T08:58:31;100789.22;;;23.00;81.44
61318;BME280;47201;40.428;-8.436;2023-05-16T09:00:32;100782.63;;;23.25;81.00
61318;BME280;47201;40.428;-8.436;2023-05-16T09:02:33;100767.88;;;23.00;80.65
61318;BME280;47201;40.428;-8.436;2023-05-16T09:04:53;100784.59;;;23.21;80.33
61318;BME280;47201;40.428;-8.436;2023-05-16T09:06:53;100792.81;;;23.66;79.36
61318;BME280;47201;40.428;-8.436;2023-05-16T09:08:55;100775.09;;;23.81;78.86
61318;BME280;47201;40.428;-8.436;2023-05-16T09:10:56;100778.38;;;23.86;78.95
61318;BME280;47201;40.428;-8.436;2023-05-16T09:12:56;100790.50;;;23.92;79.36
61318;BME280;47201;40.428;-8.436;2023-05-16T09:15:17;100793.50;;;23.38;80.08
61318;BME280;47201;40.428;-8.436;2023-05-16T09:17:17;100780.88;;;23.24;80.60
61318;BME280;47201;40.428;-8.436;2023-05-16T09:19:18;100782.47;;;22.75;81.65
61318;BME280;47201;40.428;-8.436;2023-05-16T09:21:18;100790.28;;;23.47;80.29
61318;BME280;47201;40.428;-8.436;2023-05-16T09:23:23;100794.00;;;23.44;80.31
61318;BME280;47201;40.428;-8.436;2023-05-16T09:25:25;100785.41;;;23.55;80.26
61318;BME280;47201;40.428;-8.436;2023-05-16T09:27:26;100782.50;;;24.54;78.43
61318;BME280;47201;40.428;-8.436;2023-05-16T09:29:29;100780.50;;;24.89;77.85
61318;BME280;47201;40.428;-8.436;2023-05-16T09:31:31;100788.97;;;25.96;75.35
61318;BME280;47201;40.428;-8.436;2023-05-16T09:33:36;100789.34;;;25.63;76.03
61318;BME280;47201;40.428;-8.436;2023-05-16T09:35:40;100793.38;;;25.41;76.26
61318;BME280;47201;40.428;-8.436;2023-05-16T09:37:44;100785.53;;;25.24;76.89
61318;BME280;47201;40.428;-8.436;2023-05-16T09:39:47;100785.63;;;25.51;77.63
61318;BME280;47201;40.428;-8.436;2023-05-16T09:41:50;100785.03;;;26.02;76.21
61318;BME280;47201;40.428;-8.436;2023-05-16T09:43:51;100774.78;;;26.23;75.96
61318;BME280;47201;40.428;-8.436;2023-05-16T09:45:52;100785.38;;;26.65;74.91
61318;BME280;47201;40.428;-8.436;2023-05-16T09:47:53;100783.72;;;27.16;74.51
61318;BME280;47201;40.428;-8.436;2023-05-16T09:49:57;100774.00;;;27.65;73.66
61318;BME280;47201;40.428;-8.436;2023-05-16T09:52:01;100777.09;;;27.71;73.76
61318;BME280;47201;40.428;-8.436;2023-05-16T09:54:03;100782.84;;;27.91;72.67
61318;BME280;47201;40.428;-8.436;2023-05-16T09:56:07;100783.78;;;28.27;72.77
61318;BME280;47201;40.428;-8.436;2023-05-16T09:58:10;100783.47;;;28.79;71.98
61318;BME280;47201;40.428;-8.436;2023-05-16T10:00:29;100781.28;;;28.84;72.52
61318;BME280;47201;40.428;-8.436;2023-05-16T10:02:30;100781.13;;;28.39;73.28
61318;BME280;47201;40.428;-8.436;2023-05-16T10:04:34;100765.78;;;27.79;73.93
61318;BME280;47201;40.428;-8.436;2023-05-16T10:06:35;100772.34;;;28.12;74.21
61318;BME280;47201;40.428;-8.436;2023-05-16T10:08:37;100777.78;;;27.62;75.16
61318;BME280;47201;40.428;-8.436;2023-05-16T10:10:41;100769.59;;;27.64;74.52
61318;BME280;47201;40.428;-8.436;2023-05-16T10:12:42;100763.41;;;27.24;75.65
61318;BME280;47201;40.428;-8.436;2023-05-16T10:14:44;100770.28;;;27.42;75.54
61318;BME280;47201;40.428;-8.436;2023-05-16T10:16:46;100766.50;;;27.44;75.53
61318;BME280;47201;40.428;-8.436;2023-05-16T10:18:50;100763.78;;;27.70;75.42
61318;BME280;47201;40.428;-8.436;2023-05-16T10:21:12;100765.06;;;28.61;74.44
61318;BME280;47201;40.428;-8.436;2023-05-16T10:23:32;100766.28;;;28.57;73.81
61318;BME280;47201;40.428;-8.436;2023-05-16T10:25:38;100759.88;;;28.94;74.05
61318;BME280;47201;40.428;-8.436;2023-05-16T10:27:59;100762.97;;;28.18;75.07
61318;BME280;47201;40.428;-8.436;2023-05-16T10:30:00;100766.28;;;27.60;76.19
61318;BME280;47201;40.428;-8.436;2023-05-16T10:32:01;100755.91;;;27.80;75.42
61318;BME280;47201;40.428;-8.436;2023-05-16T10:34:02;100756.28;;;28.24;74.65
61318;BME280;47201;40.428;-8.436;2023-05-16T10:36:03;100761.19;;;28.30;75.21